Time;durP1;ratioP1;P1;durP2;ratioP2;P2;SDS_P1;SDS_P2;PMS_P1;PMS_P2;Temp;Humidity;BMP_temperature;BMP_pressure;BME280_temperature;BME280_humidity;BME280_pressure;Samples;Min_cycle;Max_cycle;Signal;HPM_P1;HPM_P2
2023/03/25 00:02:22;;;;;;;3.40;0.90;;;;;;;9.32;83.06;99467.61;107188;1253;75494;-69
2023/03/25 00:04:50;;;;;;;2.70;0.80;;;;;;;9.29;83.12;99463.64;107092;1255;69278;-71
2023/03/25 00:07:21;;;;;;;3.50;1.10;;;;;;;9.27;83.01;99464.20;107464;1253;72721;-69
2023/03/25 00:09:48;;;;;;;2.60;0.90;;;;;;;9.27;83.17;99462.70;107578;1254;61255;-71
2023/03/25 00:12:15;;;;;;;3.00;0.90;;;;;;;9.26;83.16;99460.80;106993;1253;61223;-70
2023/03/25 00:14:53;;;;;;;3.40;0.90;;;;;;;9.27;83.43;99455.94;107227;1253;74494;-70
2023/03/25 00:17:27;;;;;;;3.50;0.90;;;;;;;9.27;83.40;99450.48;106793;1255;71345;-69
2023/03/25 00:19:54;;;;;;;2.90;0.90;;;;;;;9.27;83.63;99451.89;107647;1253;71751;-70
2023/03/25 00:22:22;;;;;;;3.00;1.00;;;;;;;9.26;83.75;99455.23;106825;1253;61236;-70
2023/03/25 00:24:48;;;;;;;4.00;1.30;;;;;;;9.24;83.71;99452.05;106945;1253;61256;-70
2023/03/25 00:27:18;;;;;;;3.20;1.00;;;;;;;9.23;83.64;99454.65;107430;1254;73324;-72
2023/03/25 00:29:45;;;;;;;3.70;0.90;;;;;;;9.23;83.52;99454.11;106964;1253;70013;-71
2023/03/25 00:32:14;;;;;;;4.10;1.10;;;;;;;9.22;83.50;99447.16;106603;1253;72685;-70
2023/03/25 00:34:46;;;;;;;3.40;1.10;;;;;;;9.23;83.60;99439.17;107019;1253;61440;-71
2023/03/25 00:37:20;;;;;;;3.70;1.20;;;;;;;9.26;83.36;99438.66;106649;1253;61181;-70
2023/03/25 00:39:47;;;;;;;3.10;0.90;;;;;;;9.26;83.36;99435.20;106671;1253;73333;-73
2023/03/25 00:42:16;;;;;;;2.70;1.10;;;;;;;9.27;83.23;99435.86;106901;1255;70203;-70
2023/03/25 00:44:42;;;;;;;4.30;1.10;;;;;;;9.27;83.17;99437.81;107095;1253;70595;-70
2023/03/25 00:47:11;;;;;;;3.20;1.00;;;;;;;9.27;83.34;99441.31;107174;1254;61340;-71
2023/03/25 00:49:38;;;;;;;3.10;1.00;;;;;;;9.26;83.20;99437.04;108185;1253;61286;-71
2023/03/25 00:52:05;;;;;;;2.40;0.80;;;;;;;9.25;82.87;99447.41;109092;1254;73021;-71
2023/03/25 00:54:33;;;;;;;3.70;1.20;;;;;;;9.25;83.04;99449.98;107412;1254;71214;-70
2023/03/25 00:56:59;;;;;;;5.20;1.60;;;;;;;9.24;83.01;99447.98;107354;1253;72351;-70
2023/03/25 00:59:27;;;;;;;4.40;1.20;;;;;;;9.25;82.83;99451.89;106948;1253;61701;-69
2023/03/25 01:01:55;;;;;;;5.50;1.10;;;;;;;9.26;82.96;99449.34;107377;1253;61769;-69
2023/03/25 01:04:22;;;;;;;3.40;1.20;;;;;;;9.25;82.83;99447.20;107104;1254;74593;-71
2023/03/25 01:06:50;;;;;;;3.90;1.20;;;;;;;9.22;83.05;99453.70;106704;1254;70043;-69
2023/03/25 01:09:19;;;;;;;4.60;1.30;;;;;;;9.22;82.92;99450.89;106546;1254;72661;-70
2023/03/25 01:11:47;;;;;;;4.00;1.10;;;;;;;9.24;82.99;99453.88;106999;1253;61311;-69
2023/03/25 01:14:18;;;;;;;3.70;1.40;;;;;;;9.27;82.78;99454.70;106726;1253;61709;-70
2023/03/25 01:16:45;;;;;;;5.40;1.80;;;;;;;9.29;82.88;99456.02;108402;1253;73465;-70
2023/03/25 01:19:13;;;;;;;3.70;1.00;;;;;;;9.33;82.84;99447.50;109133;1253;69580;-69
2023/03/25 01:21:40;;;;;;;1.80;0.80;;;;;;;9.35;82.85;99447.17;107940;1253;71010;-70
2023/03/25 01:24:10;;;;;;;2.60;0.80;;;;;;;9.36;82.51;99440.09;106594;1253;63048;-70
2023/03/25 01:26:37;;;;;;;5.70;1.60;;;;;;;9.39;82.52;99437.45;106534;1255;62003;-69
2023/03/25 01:29:04;;;;;;;3.50;1.00;;;;;;;9.41;82.18;99438.80;106550;1260;74714;-68
2023/03/25 01:31:30;;;;;;;4.90;1.00;;;;;;;9.42;82.01;99438.81;106568;1253;71336;-69
2023/03/25 01:33:58;;;;;;;2.50;1.00;;;;;;;9.44;81.81;99437.88;106635;1253;70683;-70
2023/03/25 01:36:28;;;;;;;4.30;1.30;;;;;;;9.46;81.56;99436.76;106747;1253;61234;-69
2023/03/25 01:38:57;;;;;;;4.20;1.20;;;;;;;9.49;81.53;99433.52;107590;1253;60485;-69
2023/03/25 01:41:27;;;;;;;5.40;2.20;;;;;;;9.52;81.53;99429.11;108118;1253;72702;-71
2023/03/25 01:44:07;;;;;;;15.50;13.70;;;;;;;9.53;81.35;99428.59;106835;1253;72075;-69
2023/03/25 01:46:36;;;;;;;18.20;15.40;;;;;;;9.55;81.50;99426.71;106742;1255;71604;-69
2023/03/25 01:49:07;;;;;;;15.80;12.70;;;;;;;9.56;81.20;99418.90;106161;1258;61440;-70
2023/03/25 01:51:39;;;;;;;23.30;18.50;;;;;;;9.58;81.26;99418.09;107070;1254;61234;-69
2023/03/25 01:54:06;;;;;;;23.70;16.80;;;;;;;9.58;81.14;99418.61;107538;1253;74793;-73
2023/03/25 01:56:37;;;;;;;24.00;17.50;;;;;;;9.59;81.01;99420.45;106535;1260;69768;-73
2023/03/25 01:59:05;;;;;;;24.90;20.40;;;;;;;9.58;80.65;99412.18;106418;1253;73589;-70
2023/03/25 02:01:33;;;;;;;14.50;10.40;;;;;;;9.62;80.21;99413.33;105733;1257;61385;-72
2023/03/25 02:04:01;;;;;;;16.00;12.60;;;;;;;9.64;79.94;99407.88;105832;1253;61225;-69
2023/03/25 02:06:38;;;;;;;9.90;7.20;;;;;;;9.67;79.79;99404.38;105821;1254;74008;-71
2023/03/25 02:09:05;;;;;;;8.10;5.70;;;;;;;9.68;79.75;99394.12;105763;1253;71229;-71
2023/03/25 02:11:32;;;;;;;10.20;7.10;;;;;;;9.69;79.85;99394.61;105702;1253;72445;-70
2023/03/25 02:14:06;;;;;;;21.00;17.20;;;;;;;9.69;79.71;99403.05;105995;1254;61883;-68
2023/03/25 02:16:47;;;;;;;20.60;17.90;;;;;;;9.69;80.60;99395.59;105894;1253;62053;-69
2023/03/25 02:19:45;;;;;;;17.70;14.60;;;;;;;9.64;81.73;99396.27;105818;1254;75758;-72
2023/03/25 02:22:46;;;;;;;31.10;24.40;;;;;;;9.54;82.58;99409.33;105835;1257;69623;-70
2023/03/25 02:25:13;;;;;;;8.30;6.70;;;;;;;9.43;83.42;99402.77;105630;1253;72786;-70
2023/03/25 02:27:59;;;;;;;40.90;37.40;;;;;;;9.33;83.67;99406.48;105799;1254;61366;-71
2023/03/25 02:30:50;;;;;;;12.40;11.30;;;;;;;9.24;83.75;99419.08;105704;1253;61284;-69
2023/03/25 02:33:40;;;;;;;6.10;5.60;;;;;;;9.18;84.68;99412.21;106362;1255;74911;-70
2023/03/25 02:36:22;;;;;;;4.90;2.70;;;;;;;9.14;84.82;99411.10;105890;1254;69896;-70
2023/03/25 02:39:00;;;;;;;4.00;2.00;;;;;;;9.07;85.62;99408.42;105847;1253;71122;-73
2023/03/25 02:41:47;;;;;;;4.60;2.70;;;;;;;9.01;86.11;99403.52;105783;1255;61300;-69
2023/03/25 02:44:18;;;;;;;4.00;1.70;;;;;;;8.95;86.76;99413.05;105859;1253;61337;-70
2023/03/25 02:46:50;;;;;;;3.90;1.90;;;;;;;8.90;87.64;99407.76;105591;1253;73755;-72
2023/03/25 02:49:24;;;;;;;4.50;1.80;;;;;;;8.85;87.65;99409.55;105658;1253;72141;-73
2023/03/25 02:51:57;;;;;;;3.30;1.80;;;;;;;8.81;88.24;99397.59;106497;1253;73311;-70
2023/03/25 02:54:27;;;;;;;5.40;3.00;;;;;;;8.78;88.34;99401.15;105726;1253;61495;-74
2023/03/25 02:56:56;;;;;;;3.20;1.70;;;;;;;8.74;88.46;99386.28;105831;1253;60347;-70
2023/03/25 02:59:31;;;;;;;4.10;1.90;;;;;;;8.73;88.16;99393.39;105906;1253;73036;-69
2023/03/25 03:02:03;;;;;;;5.70;3.60;;;;;;;8.73;87.76;99394.02;105749;1254;71215;-70
2023/03/25 03:04:30;;;;;;;5.20;2.70;;;;;;;8.73;87.69;99394.86;105624;1255;71479;-70
2023/03/25 03:06:57;;;;;;;10.60;3.50;;;;;;;8.74;87.84;99395.08;105849;1255;61349;-71
2023/03/25 03:09:33;;;;;;;7.40;5.20;;;;;;;8.73;88.25;99405.81;106193;1254;61407;-73
2023/03/25 03:12:32;;;;;;;6.40;2.80;;;;;;;8.73;88.38;99404.23;106025;1256;74769;-72
2023/03/25 03:15:45;;;;;;;6.10;2.20;;;;;;;8.70;88.47;99396.55;105198;1255;72171;-73
2023/03/25 03:18:25;;;;;;;6.10;2.80;;;;;;;8.69;88.94;99390.20;105840;1258;71267;-69
2023/03/25 03:21:05;;;;;;;5.50;2.10;;;;;;;8.62;89.28;99396.62;105833;1254;61270;-70
2023/03/25 03:23:56;;;;;;;4.50;2.20;;;;;;;8.61;89.12;99390.35;105673;1253;61240;-69
2023/03/25 03:26:37;;;;;;;6.40;3.70;;;;;;;8.59;88.85;99390.18;106045;1257;73116;-69
2023/03/25 03:29:04;;;;;;;8.30;7.50;;;;;;;8.59;88.51;99389.65;106057;1253;70861;-70
2023/03/25 03:31:41;;;;;;;7.00;4.60;;;;;;;8.60;88.29;99387.05;106260;1253;71485;-70
2023/03/25 03:34:46;;;;;;;6.20;3.30;;;;;;;8.60;88.03;99389.49;105793;1255;62551;-72
2023/03/25 03:37:17;;;;;;;5.50;3.10;;;;;;;8.60;86.79;99386.56;105641;1255;61294;-71
2023/03/25 03:39:46;;;;;;;7.90;5.40;;;;;;;8.59;85.52;99393.89;105580;1258;73716;-73
2023/03/25 03:42:22;;;;;;;5.10;3.60;;;;;;;8.60;85.33;99398.04;105930;1258;69026;-70
2023/03/25 03:44:55;;;;;;;3.40;2.00;;;;;;;8.60;85.24;99397.05;105934;1257;72578;-70
2023/03/25 03:47:31;;;;;;;4.50;1.60;;;;;;;8.56;84.82;99397.20;106676;1257;61252;-71
2023/03/25 03:50:08;;;;;;;3.90;1.90;;;;;;;8.53;84.43;99391.21;105779;1253;61226;-70
2023/03/25 03:52:42;;;;;;;4.10;1.60;;;;;;;8.52;84.96;99393.96;105955;1253;73190;-68
2023/03/25 03:55:15;;;;;;;4.50;1.80;;;;;;;8.50;85.11;99394.44;105861;1256;70012;-72
2023/03/25 03:57:56;;;;;;;5.20;2.10;;;;;;;8.49;85.57;99390.85;105644;1256;71246;-70
2023/03/25 04:01:01;;;;;;;2.90;1.90;;;;;;;8.46;85.89;99393.15;105825;1253;61272;-70
2023/03/25 04:03:37;;;;;;;5.60;1.70;;;;;;;8.44;86.03;99394.35;106152;1256;61402;-71
2023/03/25 04:06:28;;;;;;;5.00;1.60;;;;;;;8.42;85.43;99399.34;106288;1256;74920;-70
2023/03/25 04:09:05;;;;;;;5.50;2.00;;;;;;;8.43;85.13;99397.52;105786;1258;70078;-69
2023/03/25 04:11:40;;;;;;;5.60;1.50;;;;;;;8.45;84.61;99391.71;108498;1255;72394;-70
2023/03/25 04:14:08;;;;;;;4.60;1.50;;;;;;;8.46;84.34;99397.98;107361;1258;61244;-70
2023/03/25 04:16:36;;;;;;;4.90;1.60;;;;;;;8.45;84.19;99397.73;106602;1258;61747;-70
2023/03/25 04:19:04;;;;;;;5.00;1.70;;;;;;;8.44;83.89;99397.36;106073;1256;74435;-70
2023/03/25 04:21:32;;;;;;;5.10;1.80;;;;;;;8.44;83.36;99399.98;106149;1258;69669;-69
2023/03/25 04:24:00;;;;;;;5.70;2.20;;;;;;;8.47;82.99;99398.56;106854;1255;71932;-71
2023/03/25 04:26:32;;;;;;;7.70;2.00;;;;;;;8.48;83.05;99403.66;106020;1255;61803;-73
2023/03/25 04:29:00;;;;;;;4.80;1.60;;;;;;;8.46;82.80;99411.48;105663;1253;61936;-72
2023/03/25 04:31:30;;;;;;;4.20;1.50;;;;;;;8.47;82.18;99412.59;105866;1257;73608;-74
2023/03/25 04:33:57;;;;;;;6.70;2.30;;;;;;;8.49;82.26;99410.98;105708;1256;69025;-70
2023/03/25 04:36:27;;;;;;;4.50;1.80;;;;;;;8.50;82.39;99414.36;105668;1254;73055;-72
2023/03/25 04:38:55;;;;;;;6.30;1.70;;;;;;;8.51;83.00;99420.59;105981;1258;61386;-70
2023/03/25 04:41:22;;;;;;;5.90;1.80;;;;;;;8.46;83.60;99425.14;107584;1253;61395;-68
2023/03/25 04:43:49;;;;;;;6.20;1.70;;;;;;;8.42;83.75;99421.73;106139;1254;74781;-72
2023/03/25 04:46:16;;;;;;;4.70;1.90;;;;;;;8.36;83.71;99416.19;106047;1253;70565;-71
2023/03/25 04:48:44;;;;;;;8.20;2.20;;;;;;;8.32;83.16;99417.81;105788;1256;71395;-71
2023/03/25 04:51:12;;;;;;;4.90;1.90;;;;;;;8.32;83.46;99410.54;106139;1257;61346;-70
2023/03/25 04:53:40;;;;;;;6.70;1.90;;;;;;;8.28;83.34;99411.09;105848;1254;61339;-71
2023/03/25 04:56:14;;;;;;;7.50;2.20;;;;;;;8.27;83.65;99407.17;106211;1253;73237;-72
2023/03/25 04:58:43;;;;;;;5.20;1.90;;;;;;;8.22;84.16;99409.70;106585;1257;69877;-70
2023/03/25 05:01:29;;;;;;;4.60;1.90;;;;;;;8.20;84.65;99413.65;107171;1254;72727;-69
2023/03/25 05:04:05;;;;;;;6.40;2.10;;;;;;;8.20;84.80;99411.05;105462;1253;61340;-70
2023/03/25 05:06:34;;;;;;;5.30;2.50;;;;;;;8.22;84.66;99417.57;106088;1253;61237;-70
2023/03/25 05:09:03;;;;;;;6.60;2.40;;;;;;;8.26;84.75;99416.19;105898;1258;73411;-69
2023/03/25 05:11:32;;;;;;;6.80;2.40;;;;;;;8.28;84.53;99422.54;106341;1253;69805;-69
2023/03/25 05:13:59;;;;;;;7.70;2.50;;;;;;;8.31;84.53;99429.40;105704;1259;71276;-72
2023/03/25 05:16:26;;;;;;;3.70;2.20;;;;;;;8.33;83.93;99433.52;106222;1254;61194;-70
2023/03/25 05:18:53;;;;;;;6.80;2.40;;;;;;;8.35;83.66;99428.48;107055;1254;61280;-70
2023/03/25 05:21:20;;;;;;;6.90;2.40;;;;;;;8.36;83.74;99427.36;106348;1253;73104;-70
2023/03/25 05:23:47;;;;;;;5.30;2.10;;;;;;;8.38;83.72;99431.64;106196;1257;71150;-71
2023/03/25 05:26:14;;;;;;;4.20;2.10;;;;;;;8.37;83.65;99433.54;105908;1258;73048;-71
2023/03/25 05:28:41;;;;;;;5.10;2.10;;;;;;;8.35;84.20;99444.42;106088;1253;61226;-70
2023/03/25 05:31:08;;;;;;;5.60;2.40;;;;;;;8.30;85.14;99449.83;105973;1253;61284;-69
2023/03/25 05:33:41;;;;;;;3.70;2.10;;;;;;;8.23;86.21;99441.85;105987;1254;72772;-71
2023/03/25 05:36:12;;;;;;;3.70;2.10;;;;;;;8.14;87.51;99435.31;106350;1254;308220;-68
2023/03/25 05:38:43;;;;;;;5.60;2.60;;;;;;;8.05;88.84;99443.35;106789;1253;71475;-68
2023/03/25 05:41:15;;;;;;;6.00;2.30;;;;;;;7.90;90.90;99442.16;105961;1256;62063;-67
2023/03/25 05:43:46;;;;;;;4.60;2.30;;;;;;;7.78;91.15;99445.81;108248;1253;61244;-69
2023/03/25 05:46:13;;;;;;;6.10;2.30;;;;;;;7.64;91.40;99447.25;107714;1256;74360;-68
2023/03/25 05:48:40;;;;;;;5.60;2.50;;;;;;;7.53;92.95;99435.56;107035;1259;69188;-71
2023/03/25 05:51:16;;;;;;;6.70;3.20;;;;;;;7.45;94.01;99428.36;106693;1255;70284;-67
2023/03/25 05:53:48;;;;;;;6.10;3.80;;;;;;;7.40;95.08;99430.21;108420;1256;59721;-67
2023/03/25 05:56:20;;;;;;;6.70;3.60;;;;;;;7.35;95.74;99428.30;108340;1255;60672;-68
2023/03/25 05:58:49;;;;;;;7.00;3.50;;;;;;;7.32;96.45;99433.73;106740;1260;73595;-67
2023/03/25 06:01:19;;;;;;;8.10;3.80;;;;;;;7.32;96.77;99434.92;106440;1256;69710;-68
2023/03/25 06:04:01;;;;;;;5.80;2.80;;;;;;;7.34;97.41;99432.64;106526;1256;72594;-68
2023/03/25 06:06:30;;;;;;;4.50;2.70;;;;;;;7.38;97.21;99436.07;106492;1257;61307;-67
2023/03/25 06:08:57;;;;;;;6.10;2.80;;;;;;;7.43;96.36;99429.40;105796;1256;61358;-69
2023/03/25 06:11:24;;;;;;;7.00;2.80;;;;;;;7.47;96.40;99427.20;106201;1252;73460;-68
2023/03/25 06:13:51;;;;;;;6.20;3.30;;;;;;;7.50;96.12;99425.91;106540;1257;70733;-69
2023/03/25 06:16:21;;;;;;;6.60;2.90;;;;;;;7.54;95.41;99423.16;105654;1259;73163;-69
2023/03/25 06:18:54;;;;;;;5.50;2.70;;;;;;;7.60;95.26;99427.89;105539;1253;62457;-68
2023/03/25 06:21:22;;;;;;;6.60;3.10;;;;;;;7.65;94.93;99425.78;105790;1253;61328;-67
2023/03/25 06:23:49;;;;;;;6.50;2.80;;;;;;;7.71;93.37;99430.52;106942;1256;72372;-67
2023/03/25 06:26:17;;;;;;;5.60;2.90;;;;;;;7.77;93.33;99431.46;106106;1254;70896;-69
2023/03/25 06:28:44;;;;;;;5.70;2.50;;;;;;;7.83;92.70;99425.08;105950;1256;71231;-68
2023/03/25 06:31:16;;;;;;;4.70;2.50;;;;;;;7.90;92.31;99430.22;105921;1253;61279;-67
2023/03/25 06:33:44;;;;;;;7.10;2.40;;;;;;;7.97;92.13;99433.77;106021;1253;61241;-68
2023/03/25 06:36:14;;;;;;;5.50;2.30;;;;;;;8.03;91.43;99433.91;105896;1253;72957;-68
2023/03/25 06:38:41;;;;;;;5.90;2.40;;;;;;;8.09;90.53;99438.67;105791;1256;70388;-69
2023/03/25 06:41:07;;;;;;;4.70;2.50;;;;;;;8.16;90.30;99430.70;106207;1257;70403;-69
2023/03/25 06:43:34;;;;;;;4.00;2.10;;;;;;;8.22;89.67;99430.02;105933;1254;61343;-70
2023/03/25 06:46:00;;;;;;;6.60;2.50;;;;;;;8.28;88.72;99425.02;105565;1254;61613;-69
2023/03/25 06:48:27;;;;;;;4.70;2.30;;;;;;;8.35;88.26;99431.13;106357;1255;59513;-70
2023/03/25 06:50:54;;;;;;;5.30;2.40;;;;;;;8.43;87.96;99436.52;106153;1253;70909;-67
2023/03/25 06:53:21;;;;;;;3.90;2.00;;;;;;;8.49;87.19;99437.40;105827;1256;71779;-69
2023/03/25 06:55:48;;;;;;;4.80;2.10;;;;;;;8.55;86.70;99438.10;105477;1261;62321;-69
2023/03/25 06:58:15;;;;;;;5.60;2.30;;;;;;;8.60;86.41;99439.02;105805;1253;61617;-69
2023/03/25 07:00:41;;;;;;;5.30;2.40;;;;;;;8.63;85.52;99431.11;105662;1258;61436;-69
2023/03/25 07:03:10;;;;;;;3.90;2.00;;;;;;;8.66;85.85;99432.31;105904;1254;70014;-69
2023/03/25 07:05:36;;;;;;;4.70;2.00;;;;;;;8.65;85.12;99428.66;105832;1257;71562;-69
2023/03/25 07:08:04;;;;;;;4.70;2.10;;;;;;;8.71;85.15;99434.83;106220;1253;61441;-70
2023/03/25 07:10:31;;;;;;;4.80;2.10;;;;;;;8.76;84.19;99438.09;105608;1256;61743;-72
2023/03/25 07:12:57;;;;;;;5.90;2.60;;;;;;;8.85;83.81;99435.40;105755;1260;74422;-69
2023/03/25 07:15:24;;;;;;;5.70;2.50;;;;;;;8.91;83.04;99433.45;105587;1256;61334;-70
2023/03/25 07:17:51;;;;;;;7.40;2.10;;;;;;;9.02;82.93;99431.40;105540;1253;61755;-73
2023/03/25 07:20:18;;;;;;;4.10;1.90;;;;;;;9.09;82.63;99431.58;105680;1253;61395;-69
2023/03/25 07:22:45;;;;;;;5.60;2.20;;;;;;;9.13;82.02;99425.66;106336;1253;61730;-69
2023/03/25 07:25:11;;;;;;;5.80;2.20;;;;;;;9.22;81.74;99432.45;106016;1257;74357;-70
2023/03/25 07:27:37;;;;;;;4.90;1.60;;;;;;;9.30;81.22;99427.60;106176;1253;61275;-69
2023/03/25 07:30:05;;;;;;;5.20;2.00;;;;;;;9.42;80.49;99432.83;105620;1255;62625;-69
2023/03/25 07:32:31;;;;;;;4.40;1.80;;;;;;;9.62;80.28;99434.67;105896;1257;61237;-70
2023/03/25 07:34:58;;;;;;;4.40;2.00;;;;;;;9.70;78.74;99433.48;105757;1253;61346;-73
2023/03/25 07:37:24;;;;;;;4.10;1.80;;;;;;;9.71;78.33;99432.05;105802;1258;73501;-68
2023/03/25 07:39:51;;;;;;;3.90;1.70;;;;;;;9.84;78.03;99429.85;105635;1253;61391;-72
2023/03/25 07:42:17;;;;;;;5.60;1.90;;;;;;;9.95;77.69;99439.72;106240;1256;61362;-69
2023/03/25 07:44:44;;;;;;;7.00;2.10;;;;;;;9.99;76.80;99440.26;106109;1258;61717;-70
2023/03/25 07:47:11;;;;;;;3.30;1.50;;;;;;;10.02;77.01;99448.04;105393;1253;61784;-73
2023/03/25 07:49:42;;;;;;;4.90;1.90;;;;;;;9.98;77.56;99444.73;106006;1253;72380;-78
2023/03/25 07:52:09;;;;;;;5.30;1.60;;;;;;;9.90;77.64;99456.34;106145;1253;70872;-77
2023/03/25 07:54:37;;;;;;;3.70;1.90;;;;;;;9.81;78.87;99454.57;105902;1253;61623;-76
2023/03/25 07:57:04;;;;;;;4.70;1.90;;;;;;;9.66;80.55;99456.86;106102;1253;61765;-74
2023/03/25 07:59:31;;;;;;;3.60;1.50;;;;;;;9.56;81.48;99460.54;106147;1254;61582;-75
2023/03/25 08:01:57;;;;;;;19.90;3.40;;;;;;;9.45;82.67;99465.48;106187;1258;74840;-75
2023/03/25 08:04:24;;;;;;;3.70;1.30;;;;;;;9.33;82.76;99474.93;105694;1260;72678;-76
2023/03/25 08:06:51;;;;;;;3.40;1.50;;;;;;;9.31;83.02;99473.73;105937;1256;71058;-76
2023/03/25 08:09:21;;;;;;;3.50;1.50;;;;;;;9.41;83.21;99459.65;106043;1259;61271;-76
2023/03/25 08:11:48;;;;;;;4.20;1.50;;;;;;;9.48;83.15;99457.98;107378;1253;61199;-75
2023/03/25 08:14:15;;;;;;;5.10;1.90;;;;;;;9.60;82.85;99453.41;106822;1253;73688;-73
2023/03/25 08:16:42;;;;;;;5.30;1.80;;;;;;;9.73;81.77;99454.06;107290;1256;72599;-74
2023/03/25 08:19:09;;;;;;;4.10;1.80;;;;;;;9.79;80.18;99453.98;108154;1253;71175;-73
2023/03/25 08:21:36;;;;;;;4.30;1.60;;;;;;;9.79;79.53;99462.75;109196;1253;61097;-74
2023/03/25 08:24:04;;;;;;;9.40;2.20;;;;;;;9.87;79.54;99465.09;106798;1253;61309;-75
2023/03/25 08:26:32;;;;;;;4.40;1.50;;;;;;;9.90;78.41;99460.30;106645;1258;74662;-74
2023/03/25 08:29:01;;;;;;;3.70;1.70;;;;;;;9.86;77.50;99461.91;105870;1261;70546;-77
2023/03/25 08:31:30;;;;;;;11.20;2.50;;;;;;;9.84;77.79;99465.53;106355;1253;72612;-74
2023/03/25 08:33:59;;;;;;;2.60;1.50;;;;;;;9.79;77.84;99468.83;106975;1254;62721;-73
2023/03/25 08:36:26;;;;;;;5.30;1.60;;;;;;;9.74;77.94;99465.76;105770;1254;61238;-75
2023/03/25 08:38:53;;;;;;;3.90;1.40;;;;;;;9.69;78.14;99470.34;106625;1254;74741;-73
2023/03/25 08:41:20;;;;;;;3.70;1.40;;;;;;;9.65;78.80;99470.82;105977;1258;70965;-72
2023/03/25 08:43:48;;;;;;;3.40;1.50;;;;;;;9.58;79.86;99480.25;105842;1260;72408;-72
2023/03/25 08:46:14;;;;;;;13.50;2.70;;;;;;;9.50;80.22;99478.21;105697;1260;61602;-72
2023/03/25 08:48:42;;;;;;;12.70;2.60;;;;;;;9.44;80.58;99487.36;105850;1256;61256;-71
2023/03/25 08:51:09;;;;;;;7.00;2.00;;;;;;;9.44;80.70;99485.77;106583;1258;74652;-73
2023/03/25 08:53:36;;;;;;;5.90;1.80;;;;;;;9.45;81.55;99483.70;106255;1258;69649;-72
2023/03/25 08:56:03;;;;;;;6.20;1.70;;;;;;;9.39;81.69;99479.04;106577;1259;61182;-73
2023/03/25 08:58:29;;;;;;;4.50;1.80;;;;;;;9.36;82.65;99477.71;105773;1255;61263;-73
2023/03/25 09:00:56;;;;;;;4.30;1.90;;;;;;;9.32;84.41;99481.35;105840;1259;62162;-72
2023/03/25 09:03:25;;;;;;;4.60;2.00;;;;;;;9.26;84.71;99477.09;106097;1257;74924;-70
2023/03/25 09:05:53;;;;;;;4.90;2.10;;;;;;;9.16;85.44;99479.57;105690;1258;69663;-71
2023/03/25 09:08:21;;;;;;;4.80;2.30;;;;;;;9.08;86.69;99479.48;107166;1256;71172;-71
2023/03/25 09:10:48;;;;;;;5.50;1.90;;;;;;;9.03;86.60;99479.25;105713;1259;61859;-72
2023/03/25 09:13:14;;;;;;;4.70;1.90;;;;;;;9.05;85.94;99476.50;105831;1255;61178;-72
2023/03/25 09:15:41;;;;;;;4.80;1.60;;;;;;;9.12;85.83;99467.76;106451;1253;73579;-71
2023/03/25 09:18:09;;;;;;;3.30;1.80;;;;;;;9.30;85.55;99475.53;106559;1255;71231;-70
2023/03/25 09:20:35;;;;;;;3.10;1.80;;;;;;;9.59;84.33;99466.96;106449;1253;72586;-71
2023/03/25 09:23:02;;;;;;;3.30;1.80;;;;;;;9.88;84.14;99466.73;105370;1259;61427;-73
2023/03/25 09:25:29;;;;;;;4.50;1.90;;;;;;;10.04;82.71;99465.41;105838;1257;61644;-72
2023/03/25 09:27:56;;;;;;;5.30;1.60;;;;;;;10.07;81.75;99466.14;106601;1254;74372;-72
2023/03/25 09:30:22;;;;;;;4.90;1.90;;;;;;;10.10;81.04;99470.22;106365;1258;70106;-71
2023/03/25 09:32:49;;;;;;;4.70;1.60;;;;;;;10.11;80.53;99466.02;105978;1258;72778;-71
2023/03/25 09:35:16;;;;;;;4.90;1.80;;;;;;;10.00;80.46;99464.92;107620;1255;61265;-72
2023/03/25 09:37:43;;;;;;;3.10;1.50;;;;;;;9.89;80.59;99469.88;106773;1260;61217;-72
2023/03/25 09:40:15;;;;;;;5.60;1.70;;;;;;;9.86;80.92;99468.39;105599;1254;73165;-72
2023/03/25 09:43:03;;;;;;;4.30;1.60;;;;;;;9.81;80.61;99479.87;106029;1258;69802;-72
2023/03/25 09:45:52;;;;;;;2.90;1.60;;;;;;;9.87;80.09;99465.98;106464;1254;71424;-76
2023/03/25 09:48:42;;;;;;;3.10;1.50;;;;;;;9.92;79.48;99461.97;107385;1258;61846;-70
2023/03/25 09:51:32;;;;;;;3.30;1.40;;;;;;;9.96;79.34;99467.07;106771;1253;61289;-72
2023/03/25 09:54:21;;;;;;;3.70;1.50;;;;;;;10.02;79.29;99473.20;106362;1254;73561;-71
2023/03/25 09:56:49;;;;;;;3.60;1.60;;;;;;;10.09;79.01;99474.99;106782;1256;70001;-71
2023/03/25 09:59:20;;;;;;;3.00;1.40;;;;;;;10.16;78.58;99470.20;106264;1260;71458;-71
2023/03/25 10:02:34;;;;;;;6.20;2.20;;;;;;;10.26;78.68;99472.82;105440;1255;62756;-72
2023/03/25 10:05:17;;;;;;;4.90;1.90;;;;;;;10.33;78.21;99478.90;106068;1254;61667;-71
2023/03/25 10:08:03;;;;;;;5.50;2.20;;;;;;;10.38;77.08;99472.23;106402;1258;75244;-72
2023/03/25 10:10:50;;;;;;;4.00;1.80;;;;;;;10.47;76.69;99473.63;106952;1254;68742;-71
2023/03/25 10:13:50;;;;;;;5.10;2.00;;;;;;;10.56;75.77;99477.30;105566;1258;72356;-74
2023/03/25 10:16:37;;;;;;;5.40;2.10;;;;;;;10.69;74.28;99465.09;105843;1254;62049;-72
2023/03/25 10:19:07;;;;;;;4.80;2.20;;;;;;;10.83;73.74;99456.05;105571;1260;61281;-73
2023/03/25 10:21:42;;;;;;;6.00;2.20;;;;;;;10.94;72.93;99456.68;105865;1259;73724;-72
2023/03/25 10:24:15;;;;;;;6.70;2.00;;;;;;;11.10;71.72;99471.14;106172;1256;70350;-70
2023/03/25 10:26:51;;;;;;;3.70;2.10;;;;;;;11.26;70.40;99460.23;106821;1258;72423;-75
2023/03/25 10:29:21;;;;;;;4.90;1.80;;;;;;;11.31;69.97;99474.38;105600;1257;61782;-73
2023/03/25 10:31:55;;;;;;;4.30;1.80;;;;;;;11.19;68.52;99474.21;106700;1258;61241;-72
2023/03/25 10:34:41;;;;;;;5.10;2.20;;;;;;;11.17;68.94;99455.44;105748;1258;74993;-71
2023/03/25 10:37:16;;;;;;;4.00;1.60;;;;;;;11.23;68.84;99461.58;105844;1258;70924;-72
2023/03/25 10:39:46;;;;;;;5.50;2.30;;;;;;;11.29;68.70;99458.62;105648;1259;72693;-72
2023/03/25 10:42:21;;;;;;;4.20;1.70;;;;;;;11.43;67.68;99460.45;105860;1257;61257;-73
2023/03/25 10:44:48;;;;;;;7.20;2.10;;;;;;;11.67;67.22;99464.29;105804;1256;61326;-72
2023/03/25 10:47:18;;;;;;;6.10;2.30;;;;;;;11.89;66.73;99455.60;107542;1253;74394;-72
2023/03/25 10:49:47;;;;;;;4.10;1.70;;;;;;;12.18;64.91;99459.56;106005;1258;70190;-73
2023/03/25 10:52:15;;;;;;;6.20;2.50;;;;;;;12.29;64.26;99451.23;105527;1261;73377;-73
2023/03/25 10:54:50;;;;;;;4.20;1.70;;;;;;;12.26;64.33;99454.75;105627;1254;61826;-74
2023/03/25 10:57:28;;;;;;;4.20;1.80;;;;;;;12.13;63.65;99460.24;105681;1254;61251;-72
2023/03/25 11:00:03;;;;;;;5.30;2.20;;;;;;;12.08;63.79;99452.20;106595;1255;75163;-70
2023/03/25 11:02:32;;;;;;;6.00;2.00;;;;;;;12.12;62.62;99453.92;109145;1255;71019;-71
2023/03/25 11:05:03;;;;;;;5.50;2.40;;;;;;;12.18;62.94;99453.05;108964;1254;71771;-72
2023/03/25 11:07:40;;;;;;;6.40;2.60;;;;;;;12.23;62.74;99442.63;109068;1254;61868;-72
2023/03/25 11:10:18;;;;;;;6.80;2.20;;;;;;;12.38;60.57;99441.58;108999;1254;60433;-72
2023/03/25 11:12:47;;;;;;;8.60;2.00;;;;;;;12.51;60.28;99446.65;109058;1254;75237;-72
2023/03/25 11:15:18;;;;;;;4.20;1.80;;;;;;;12.61;58.59;99446.77;108446;1254;71754;-74
2023/03/25 11:17:47;;;;;;;5.50;2.00;;;;;;;12.66;57.78;99437.55;105541;1260;72706;-72
2023/03/25 11:20:21;;;;;;;6.50;1.90;;;;;;;12.54;58.26;99438.77;105857;1254;61747;-75
2023/03/25 11:22:52;;;;;;;7.00;2.00;;;;;;;12.41;59.24;99437.16;106468;1254;61273;-71
2023/03/25 11:25:25;;;;;;;4.80;2.00;;;;;;;12.34;59.65;99438.86;107252;1254;74787;-72
2023/03/25 11:27:57;;;;;;;8.50;2.40;;;;;;;12.25;60.29;99433.14;106907;1257;70051;-72
2023/03/25 11:30:25;;;;;;;6.10;2.40;;;;;;;12.13;60.64;99440.98;106036;1254;71561;-73
2023/03/25 11:33:04;;;;;;;6.50;1.70;;;;;;;12.12;61.33;99438.34;105996;1255;61666;-74
2023/03/25 11:35:36;;;;;;;6.80;1.80;;;;;;;12.05;59.16;99445.45;105743;1257;61351;-72
2023/03/25 11:38:17;;;;;;;15.10;2.80;;;;;;;12.17;58.90;99433.27;105773;1257;74854;-72
2023/03/25 11:40:56;;;;;;;5.40;1.60;;;;;;;12.44;58.34;99439.46;106519;1255;69999;-72
2023/03/25 11:43:26;;;;;;;13.70;2.20;;;;;;;12.59;57.51;99434.84;106240;1259;72787;-72
2023/03/25 11:45:53;;;;;;;4.20;1.50;;;;;;;12.64;57.76;99424.32;105798;1258;61237;-74
2023/03/25 11:48:30;;;;;;;4.70;1.70;;;;;;;12.58;57.65;99425.39;105714;1254;61324;-72
2023/03/25 11:51:01;;;;;;;9.20;2.40;;;;;;;12.46;58.56;99427.05;105691;1259;74117;-73
2023/03/25 11:53:31;;;;;;;9.80;2.40;;;;;;;12.33;59.68;99422.91;106534;1254;70105;-71